sensor_id;sensor_type;location;lat;lon;timestamp;pressure;altitude;pressure_sealevel;temperature;humidity
75513;BME280;64090;49.770;18.760;2023-05-31T00:01:27;98204.63;;;10.61;65.24
75513;BME280;64090;49.770;18.760;2023-05-31T00:04:37;98203.02;;;10.58;65.06
75513;BME280;64090;49.770;18.760;2023-05-31T00:07:46;98203.83;;;10.56;65.75
75513;BME280;64090;49.770;18.760;2023-05-31T00:10:54;98202.48;;;10.51;65.84
75513;BME280;64090;49.770;18.760;2023-05-31T00:13:58;98199.83;;;10.47;66.21
75513;BME280;64090;49.770;18.760;2023-05-31T00:17:03;98197.28;;;10.41;66.39
75513;BME280;64090;49.770;18.760;2023-05-31T00:20:34;98194.81;;;10.34;67.10
75513;BME280;64090;49.770;18.760;2023-05-31T00:23:47;98193.38;;;10.23;67.59
75513;BME280;64090;49.770;18.760;2023-05-31T00:26:52;98187.98;;;10.12;67.21
75513;BME280;64090;49.770;18.760;2023-05-31T00:30:11;98184.80;;;10.05;67.17
75513;BME280;64090;49.770;18.760;2023-05-31T00:33:44;98185.05;;;10.00;67.54
75513;BME280;64090;49.770;18.760;2023-05-31T00:36:48;98184.02;;;9.95;68.31
75513;BME280;64090;49.770;18.760;2023-05-31T00:39:52;98181.95;;;9.88;69.09
75513;BME280;64090;49.770;18.760;2023-05-31T00:42:57;98184.20;;;9.75;69.21
75513;BME280;64090;49.770;18.760;2023-05-31T00:46:09;98188.89;;;9.59;69.79
75513;BME280;64090;49.770;18.760;2023-05-31T00:49:14;98189.98;;;9.41;70.22
75513;BME280;64090;49.770;18.760;2023-05-31T00:52:33;98187.45;;;9.24;69.88
75513;BME280;64090;49.770;18.760;2023-05-31T00:55:41;98186.30;;;9.05;69.97
75513;BME280;64090;49.770;18.760;2023-05-31T00:58:55;98180.10;;;8.88;70.14
75513;BME280;64090;49.770;18.760;2023-05-31T01:02:00;98183.04;;;8.74;70.21
75513;BME280;64090;49.770;18.760;2023-05-31T01:05:07;98183.39;;;8.63;70.64
75513;BME280;64090;49.770;18.760;2023-05-31T01:08:24;98179.98;;;8.57;71.44
75513;BME280;64090;49.770;18.760;2023-05-31T01:15:27;98182.45;;;8.53;72.16
75513;BME280;64090;49.770;18.760;2023-05-31T01:18:36;98181.34;;;8.49;72.12
75513;BME280;64090;49.770;18.760;2023-05-31T01:25:46;;;;8.30;
75513;BME280;64090;49.770;18.760;2023-05-31T01:29:18;98189.31;;;8.17;72.94
75513;BME280;64090;49.770;18.760;2023-05-31T01:32:25;98191.59;;;8.05;73.18
75513;BME280;64090;49.770;18.760;2023-05-31T01:35:33;98192.13;;;7.95;72.88
75513;BME280;64090;49.770;18.760;2023-05-31T01:38:40;98195.21;;;7.86;72.65
75513;BME280;64090;49.770;18.760;2023-05-31T01:41:46;98196.67;;;7.76;72.74
75513;BME280;64090;49.770;18.760;2023-05-31T01:44:59;98196.73;;;7.66;72.87
75513;BME280;64090;49.770;18.760;2023-05-31T01:48:10;98197.24;;;7.57;73.01
75513;BME280;64090;49.770;18.760;2023-05-31T01:51:23;98196.33;;;7.50;73.51
75513;BME280;64090;49.770;18.760;2023-05-31T01:55:09;98204.23;;;7.42;73.70
75513;BME280;64090;49.770;18.760;2023-05-31T01:58:56;98200.10;;;7.36;74.22
75513;BME280;64090;49.770;18.760;2023-05-31T02:02:04;98198.27;;;7.32;74.12
75513;BME280;64090;49.770;18.760;2023-05-31T02:05:10;98199.09;;;7.28;74.60
75513;BME280;64090;49.770;18.760;2023-05-31T02:08:19;98199.22;;;7.23;74.60
75513;BME280;64090;49.770;18.760;2023-05-31T02:11:46;98200.63;;;7.16;74.74
75513;BME280;64090;49.770;18.760;2023-05-31T02:14:55;98203.83;;;7.11;74.62
75513;BME280;64090;49.770;18.760;2023-05-31T02:17:59;98204.80;;;7.07;74.71
75513;BME280;64090;49.770;18.760;2023-05-31T02:21:40;98203.46;;;7.03;74.90
75513;BME280;64090;49.770;18.760;2023-05-31T02:24:44;98203.66;;;7.02;74.97
75513;BME280;64090;49.770;18.760;2023-05-31T02:28:04;98203.60;;;7.01;74.98
75513;BME280;64090;49.770;18.760;2023-05-31T02:31:17;98203.73;;;6.98;74.51
75513;BME280;64090;49.770;18.760;2023-05-31T02:34:22;98203.95;;;6.96;75.10
75513;BME280;64090;49.770;18.760;2023-05-31T02:37:29;98200.77;;;6.94;75.40
75513;BME280;64090;49.770;18.760;2023-05-31T02:41:00;98199.19;;;6.92;75.53
75513;BME280;64090;49.770;18.760;2023-05-31T02:44:09;98202.70;;;6.91;76.18
75513;BME280;64090;49.770;18.760;2023-05-31T02:47:16;98206.78;;;6.89;75.76
75513;BME280;64090;49.770;18.760;2023-05-31T02:50:24;98207.20;;;6.88;75.41
75513;BME280;64090;49.770;18.760;2023-05-31T02:53:26;98206.38;;;6.90;75.75
75513;BME280;64090;49.770;18.760;2023-05-31T02:56:30;98213.60;;;6.93;75.35
75513;BME280;64090;49.770;18.760;2023-05-31T02:59:45;98212.80;;;6.95;75.79
75513;BME280;64090;49.770;18.760;2023-05-31T03:03:14;98219.16;;;7.11;76.25
75513;BME280;64090;49.770;18.760;2023-05-31T03:06:43;98214.48;;;7.56;76.06
75513;BME280;64090;49.770;18.760;2023-05-31T03:09:56;98215.02;;;8.05;75.75
75513;BME280;64090;49.770;18.760;2023-05-31T03:12:59;98214.42;;;8.65;75.01
75513;BME280;64090;49.770;18.760;2023-05-31T03:16:08;98215.19;;;9.36;74.39
75513;BME280;64090;49.770;18.760;2023-05-31T03:19:12;98215.04;;;10.09;73.45
75513;BME280;64090;49.770;18.760;2023-05-31T03:22:15;98214.23;;;10.80;72.19
75513;BME280;64090;49.770;18.760;2023-05-31T03:25:20;98219.61;;;11.51;71.02
75513;BME280;64090;49.770;18.760;2023-05-31T03:28:24;98221.78;;;12.23;69.26
75513;BME280;64090;49.770;18.760;2023-05-31T03:31:27;98217.00;;;12.84;67.85
75513;BME280;64090;49.770;18.760;2023-05-31T03:34:40;98216.13;;;13.63;66.35
75513;BME280;64090;49.770;18.760;2023-05-31T03:37:45;98216.83;;;14.31;62.86
75513;BME280;64090;49.770;18.760;2023-05-31T03:40:49;98213.36;;;14.86;61.54
75513;BME280;64090;49.770;18.760;2023-05-31T03:43:52;98214.28;;;15.45;60.28
75513;BME280;64090;49.770;18.760;2023-05-31T03:46:57;98217.42;;;16.03;57.71
75513;BME280;64090;49.770;18.760;2023-05-31T03:50:04;98217.91;;;16.60;56.52
75513;BME280;64090;49.770;18.760;2023-05-31T03:53:11;98214.97;;;17.16;54.40
75513;BME280;64090;49.770;18.760;2023-05-31T03:56:14;98218.00;;;17.78;53.09
75513;BME280;64090;49.770;18.760;2023-05-31T03:59:53;98222.98;;;18.53;52.63
75513;BME280;64090;49.770;18.760;2023-05-31T04:03:07;98222.05;;;19.28;50.55
75513;BME280;64090;49.770;18.760;2023-05-31T04:06:31;98224.05;;;19.93;47.67
75513;BME280;64090;49.770;18.760;2023-05-31T04:09:38;98226.98;;;20.23;49.65
75513;BME280;64090;49.770;18.760;2023-05-31T04:12:43;98227.69;;;21.01;48.16
75513;BME280;64090;49.770;18.760;2023-05-31T04:15:57;98225.95;;;21.68;43.73
75513;BME280;64090;49.770;18.760;2023-05-31T04:19:18;98227.96;;;22.14;41.19
75513;BME280;64090;49.770;18.760;2023-05-31T04:22:46;98226.66;;;22.28;40.55
75513;BME280;64090;49.770;18.760;2023-05-31T04:25:53;98227.33;;;22.43;41.64
75513;BME280;64090;49.770;18.760;2023-05-31T04:29:16;98227.38;;;22.69;41.17
75513;BME280;64090;49.770;18.760;2023-05-31T04:32:40;98232.59;;;22.98;39.36
75513;BME280;64090;49.770;18.760;2023-05-31T04:35:52;98233.73;;;23.04;39.60
75513;BME280;64090;49.770;18.760;2023-05-31T04:39:01;98231.77;;;23.24;39.32
75513;BME280;64090;49.770;18.760;2023-05-31T04:42:17;98237.83;;;23.50;40.71
75513;BME280;64090;49.770;18.760;2023-05-31T04:45:42;98235.58;;;23.90;38.48
75513;BME280;64090;49.770;18.760;2023-05-31T04:49:00;98235.77;;;24.01;36.94
75513;BME280;64090;49.770;18.760;2023-05-31T04:52:16;98235.28;;;24.21;37.45
75513;BME280;64090;49.770;18.760;2023-05-31T04:55:21;98238.45;;;23.34;37.61
75513;BME280;64090;49.770;18.760;2023-05-31T04:58:53;98235.80;;;22.35;41.58
75513;BME280;64090;49.770;18.760;2023-05-31T05:01:56;98234.20;;;21.90;42.30
75513;BME280;64090;49.770;18.760;2023-05-31T05:05:09;98238.35;;;21.55;42.55
75513;BME280;64090;49.770;18.760;2023-05-31T05:08:33;98237.77;;;21.23;42.28
75513;BME280;64090;49.770;18.760;2023-05-31T05:11:39;98237.60;;;20.82;41.96
75513;BME280;64090;49.770;18.760;2023-05-31T05:14:58;98239.39;;;20.37;43.65
75513;BME280;64090;49.770;18.760;2023-05-31T05:18:10;98238.44;;;20.07;44.22
75513;BME280;64090;49.770;18.760;2023-05-31T05:21:30;98240.77;;;19.92;43.93
75513;BME280;64090;49.770;18.760;2023-05-31T05:24:41;98237.55;;;19.75;44.43
75513;BME280;64090;49.770;18.760;2023-05-31T05:27:56;98237.93;;;19.71;44.36
75513;BME280;64090;49.770;18.760;2023-05-31T05:31:03;98237.79;;;19.72;44.24
75513;BME280;64090;49.770;18.760;2023-05-31T05:34:11;98240.44;;;19.72;43.98
75513;BME280;64090;49.770;18.760;2023-05-31T05:37:18;98239.58;;;19.56;43.95
75513;BME280;64090;49.770;18.760;2023-05-31T05:40:57;98238.81;;;19.43;44.80
75513;BME280;64090;49.770;18.760;2023-05-31T05:44:09;98236.14;;;19.33;44.68
75513;BME280;64090;49.770;18.760;2023-05-31T05:47:20;98243.59;;;19.34;44.66
75513;BME280;64090;49.770;18.760;2023-05-31T05:50:42;98244.95;;;19.27;45.09
75513;BME280;64090;49.770;18.760;2023-05-31T05:54:02;98248.80;;;19.28;45.10
75513;BME280;64090;49.770;18.760;2023-05-31T05:57:16;98253.26;;;19.31;44.62
75513;BME280;64090;49.770;18.760;2023-05-31T06:00:38;98258.16;;;19.23;44.70
75513;BME280;64090;49.770;18.760;2023-05-31T06:04:01;98258.09;;;19.25;44.99
75513;BME280;64090;49.770;18.760;2023-05-31T06:07:18;98257.31;;;19.23;45.10
75513;BME280;64090;49.770;18.760;2023-05-31T06:10:35;98259.85;;;19.20;44.81
75513;BME280;64090;49.770;18.760;2023-05-31T06:13:41;98258.86;;;19.23;44.69
75513;BME280;64090;49.770;18.760;2023-05-31T06:16:50;98263.03;;;19.36;44.84
75513;BME280;64090;49.770;18.760;2023-05-31T06:20:16;98263.83;;;19.48;44.60
75513;BME280;64090;49.770;18.760;2023-05-31T06:23:23;98259.11;;;19.58;44.90
75513;BME280;64090;49.770;18.760;2023-05-31T06:26:30;98262.02;;;19.72;46.51
75513;BME280;64090;49.770;18.760;2023-05-31T06:29:43;98263.66;;;19.79;45.26
75513;BME280;64090;49.770;18.760;2023-05-31T06:32:47;98258.73;;;19.78;44.52
75513;BME280;64090;49.770;18.760;2023-05-31T06:36:02;98262.52;;;19.87;44.32
75513;BME280;64090;49.770;18.760;2023-05-31T06:39:21;98261.48;;;19.78;44.34
75513;BME280;64090;49.770;18.760;2023-05-31T06:42:48;98260.73;;;19.76;44.26
75513;BME280;64090;49.770;18.760;2023-05-31T06:46:11;98258.58;;;19.78;44.41
75513;BME280;64090;49.770;18.760;2023-05-31T06:49:21;98256.75;;;19.84;44.20
75513;BME280;64090;49.770;18.760;2023-05-31T06:52:27;98255.05;;;19.86;44.53
75513;BME280;64090;49.770;18.760;2023-05-31T06:56:12;98256.92;;;19.85;44.37
75513;BME280;64090;49.770;18.760;2023-05-31T06:59:30;98252.64;;;19.82;44.94
75513;BME280;64090;49.770;18.760;2023-05-31T07:02:35;98251.44;;;19.82;45.31
75513;BME280;64090;49.770;18.760;2023-05-31T07:05:53;98251.05;;;19.80;45.77
75513;BME280;64090;49.770;18.760;2023-05-31T07:09:11;98248.09;;;19.90;45.76
75513;BME280;64090;49.770;18.760;2023-05-31T07:12:35;98248.19;;;19.99;45.11
75513;BME280;64090;49.770;18.760;2023-05-31T07:15:42;98247.36;;;20.03;44.22
75513;BME280;64090;49.770;18.760;2023-05-31T07:18:49;98251.21;;;20.05;44.19
75513;BME280;64090;49.770;18.760;2023-05-31T07:22:15;98258.67;;;20.16;42.77
75513;BME280;64090;49.770;18.760;2023-05-31T07:25:28;98252.10;;;20.17;43.19
75513;BME280;64090;49.770;18.760;2023-05-31T07:28:56;98252.77;;;20.20;42.68
75513;BME280;64090;49.770;18.760;2023-05-31T07:32:05;98254.86;;;20.23;42.98
75513;BME280;64090;49.770;18.760;2023-05-31T07:35:39;98252.10;;;20.28;43.34
75513;BME280;64090;49.770;18.760;2023-05-31T07:38:50;98249.63;;;20.35;43.32
75513;BME280;64090;49.770;18.760;2023-05-31T07:42:24;98246.67;;;20.33;43.33
75513;BME280;64090;49.770;18.760;2023-05-31T07:45:45;98247.55;;;20.39;43.54
75513;BME280;64090;49.770;18.760;2023-05-31T07:48:55;98250.36;;;20.44;42.61
75513;BME280;64090;49.770;18.760;2023-05-31T07:52:09;98245.92;;;20.45;42.18
75513;BME280;64090;49.770;18.760;2023-05-31T07:55:18;98247.08;;;20.46;42.26
75513;BME280;64090;49.770;18.760;2023-05-31T07:58:26;98241.23;;;20.50;41.46
75513;BME280;64090;49.770;18.760;2023-05-31T08:01:52;98242.00;;;20.47;41.60
75513;BME280;64090;49.770;18.760;2023-05-31T08:05:10;98235.27;;;20.58;41.28
75513;BME280;64090;49.770;18.760;2023-05-31T08:08:43;98229.92;;;20.65;40.68
75513;BME280;64090;49.770;18.760;2023-05-31T08:11:55;98232.71;;;20.69;41.02
75513;BME280;64090;49.770;18.760;2023-05-31T08:15:14;98238.11;;;20.84;40.74
75513;BME280;64090;49.770;18.760;2023-05-31T08:18:26;98229.77;;;20.90;40.61
75513;BME280;64090;49.770;18.760;2023-05-31T08:21:33;98227.50;;;20.80;37.83
75513;BME280;64090;49.770;18.760;2023-05-31T08:24:41;98227.40;;;20.97;39.10
75513;BME280;64090;49.770;18.760;2023-05-31T08:27:45;98232.48;;;21.14;39.19
75513;BME280;64090;49.770;18.760;2023-05-31T08:30:52;98226.89;;;21.18;38.44
75513;BME280;64090;49.770;18.760;2023-05-31T08:34:03;98231.36;;;21.28;38.97
75513;BME280;64090;49.770;18.760;2023-05-31T08:37:10;98231.55;;;21.38;36.77
75513;BME280;64090;49.770;18.760;2023-05-31T08:40:20;98229.91;;;21.44;36.35
75513;BME280;64090;49.770;18.760;2023-05-31T08:43:31;98225.47;;;21.55;35.59
75513;BME280;64090;49.770;18.760;2023-05-31T08:46:41;98229.48;;;21.59;35.85
75513;BME280;64090;49.770;18.760;2023-05-31T08:50:07;98228.57;;;21.61;34.64
75513;BME280;64090;49.770;18.760;2023-05-31T08:53:24;98224.58;;;21.63;34.69
75513;BME280;64090;49.770;18.760;2023-05-31T08:56:30;98228.76;;;21.66;34.45
75513;BME280;64090;49.770;18.760;2023-05-31T08:59:38;98230.04;;;21.61;33.61
75513;BME280;64090;49.770;18.760;2023-05-31T09:03:06;98239.79;;;21.42;34.14
75513;BME280;64090;49.770;18.760;2023-05-31T09:06:19;98235.44;;;21.39;33.80
75513;BME280;64090;49.770;18.760;2023-05-31T09:09:39;98230.85;;;21.33;33.38
75513;BME280;64090;49.770;18.760;2023-05-31T09:12:50;98231.35;;;21.26;35.40
75513;BME280;64090;49.770;18.760;2023-05-31T09:15:54;98233.63;;;21.38;35.04
75513;BME280;64090;49.770;18.760;2023-05-31T09:19:19;98231.30;;;21.42;34.47
75513;BME280;64090;49.770;18.760;2023-05-31T09:22:47;98231.43;;;21.46;34.05
75513;BME280;64090;49.770;18.760;2023-05-31T09:26:00;98219.64;;;21.39;33.83
75513;BME280;64090;49.770;18.760;2023-05-31T09:29:14;98216.46;;;21.40;33.65
75513;BME280;64090;49.770;18.760;2023-05-31T09:32:29;98218.83;;;21.47;33.03
75513;BME280;64090;49.770;18.760;2023-05-31T09:35:57;98223.86;;;21.40;33.34
75513;BME280;64090;49.770;18.760;2023-05-31T09:39:05;98220.02;;;21.39;33.58
75513;BME280;64090;49.770;18.760;2023-05-31T09:42:38;98220.18;;;21.47;33.98
75513;BME280;64090;49.770;18.760;2023-05-31T09:45:48;98213.94;;;21.43;33.69
75513;BME280;64090;49.770;18.760;2023-05-31T09:49:05;98214.09;;;21.53;34.78
75513;BME280;64090;49.770;18.760;2023-05-31T09:52:13;98213.01;;;21.53;33.32
75513;BME280;64090;49.770;18.760;2023-05-31T09:56:07;98222.57;;;21.33;33.98
75513;BME280;64090;49.770;18.760;2023-05-31T09:59:25;98215.81;;;21.33;34.86
75513;BME280;64090;49.770;18.760;2023-05-31T10:02:30;98205.58;;;21.48;35.08
75513;BME280;64090;49.770;18.760;2023-05-31T10:05:57;98209.94;;;21.59;34.18
75513;BME280;64090;49.770;18.760;2023-05-31T10:09:10;98205.30;;;21.64;34.48
75513;BME280;64090;49.770;18.760;2023-05-31T10:12:39;98196.95;;;21.72;34.91
75513;BME280;64090;49.770;18.760;2023-05-31T10:16:32;98198.89;;;21.90;34.64
75513;BME280;64090;49.770;18.760;2023-05-31T10:19:45;98185.09;;;21.94;34.56
75513;BME280;64090;49.770;18.760;2023-05-31T10:23:01;98189.65;;;22.02;34.47
75513;BME280;64090;49.770;18.760;2023-05-31T10:26:17;98184.02;;;22.01;34.62
75513;BME280;64090;49.770;18.760;2023-05-31T10:29:28;98186.89;;;22.05;34.64
75513;BME280;64090;49.770;18.760;2023-05-31T10:33:05;98181.52;;;22.00;34.77
75513;BME280;64090;49.770;18.760;2023-05-31T10:36:27;98177.66;;;21.92;35.11
75513;BME280;64090;49.770;18.760;2023-05-31T10:40:01;98181.17;;;21.86;34.68
75513;BME280;64090;49.770;18.760;2023-05-31T10:43:19;98176.59;;;21.72;35.67
75513;BME280;64090;49.770;18.760;2023-05-31T10:46:54;98172.13;;;21.65;35.34
75513;BME280;64090;49.770;18.760;2023-05-31T10:50:18;98172.08;;;21.62;34.39
75513;BME280;64090;49.770;18.760;2023-05-31T10:53:43;98171.92;;;21.51;35.63
75513;BME280;64090;49.770;18.760;2023-05-31T10:57:07;98163.05;;;21.53;35.47
75513;BME280;64090;49.770;18.760;2023-05-31T11:00:19;98158.96;;;21.60;35.39
75513;BME280;64090;49.770;18.760;2023-05-31T11:03:34;98156.94;;;21.70;36.25
75513;BME280;64090;49.770;18.760;2023-05-31T11:06:54;98155.50;;;21.83;36.94
75513;BME280;64090;49.770;18.760;2023-05-31T11:10:23;98151.09;;;21.93;36.02
75513;BME280;64090;49.770;18.760;2023-05-31T11:17:24;98142.30;;;21.88;36.22
75513;BME280;64090;49.770;18.760;2023-05-31T11:20:35;98143.66;;;21.91;35.51
75513;BME280;64090;49.770;18.760;2023-05-31T11:24:01;98141.33;;;21.91;35.58
75513;BME280;64090;49.770;18.760;2023-05-31T11:27:12;98133.74;;;21.89;34.73
75513;BME280;64090;49.770;18.760;2023-05-31T11:30:35;98125.56;;;21.81;35.33
75513;BME280;64090;49.770;18.760;2023-05-31T11:34:20;98129.22;;;22.01;37.21
75513;BME280;64090;49.770;18.760;2023-05-31T11:37:30;98131.27;;;22.08;35.70
75513;BME280;64090;49.770;18.760;2023-05-31T11:40:41;98129.92;;;22.12;35.48
75513;BME280;64090;49.770;18.760;2023-05-31T11:43:49;98120.72;;;22.11;35.51
75513;BME280;64090;49.770;18.760;2023-05-31T11:47:00;98125.54;;;22.18;35.87
75513;BME280;64090;49.770;18.760;2023-05-31T11:50:12;98125.23;;;22.24;35.84
75513;BME280;64090;49.770;18.760;2023-05-31T11:53:30;98122.42;;;22.25;35.57
75513;BME280;64090;49.770;18.760;2023-05-31T11:56:33;98128.16;;;22.27;34.63
75513;BME280;64090;49.770;18.760;2023-05-31T11:59:44;98127.66;;;22.18;34.72
75513;BME280;64090;49.770;18.760;2023-05-31T12:03:01;98133.03;;;22.24;33.50
75513;BME280;64090;49.770;18.760;2023-05-31T12:06:17;98130.52;;;22.13;34.06
75513;BME280;64090;49.770;18.760;2023-05-31T12:09:27;98123.69;;;22.10;34.04
75513;BME280;64090;49.770;18.760;2023-05-31T12:12:35;98119.85;;;22.12;34.11
75513;BME280;64090;49.770;18.760;2023-05-31T12:16:09;98123.95;;;22.25;34.75
75513;BME280;64090;49.770;18.760;2023-05-31T12:19:15;98124.41;;;22.37;34.43
75513;BME280;64090;49.770;18.760;2023-05-31T12:22:41;98110.55;;;22.40;33.63
75513;BME280;64090;49.770;18.760;2023-05-31T12:25:51;98110.58;;;22.47;33.15
75513;BME280;64090;49.770;18.760;2023-05-31T12:29:12;98110.38;;;22.46;34.13
75513;BME280;64090;49.770;18.760;2023-05-31T12:32:19;98109.13;;;22.52;33.52
75513;BME280;64090;49.770;18.760;2023-05-31T12:35:42;98102.13;;;22.52;32.96
75513;BME280;64090;49.770;18.760;2023-05-31T12:38:56;98096.62;;;22.39;32.81
75513;BME280;64090;49.770;18.760;2023-05-31T12:42:16;98100.39;;;22.52;32.80
75513;BME280;64090;49.770;18.760;2023-05-31T12:45:27;98097.95;;;22.57;32.22
75513;BME280;64090;49.770;18.760;2023-05-31T12:48:35;98103.14;;;22.61;31.25
75513;BME280;64090;49.770;18.760;2023-05-31T12:52:03;98096.30;;;22.63;32.06
75513;BME280;64090;49.770;18.760;2023-05-31T12:55:09;98098.02;;;22.68;31.83
75513;BME280;64090;49.770;18.760;2023-05-31T12:58:31;98088.15;;;22.70;31.64
75513;BME280;64090;49.770;18.760;2023-05-31T13:01:38;98086.18;;;22.78;32.18
75513;BME280;64090;49.770;18.760;2023-05-31T13:04:53;98083.27;;;22.89;32.41
75513;BME280;64090;49.770;18.760;2023-05-31T13:08:30;98084.12;;;23.03;31.72
75513;BME280;64090;49.770;18.760;2023-05-31T13:11:36;98084.61;;;23.00;31.40
75513;BME280;64090;49.770;18.760;2023-05-31T13:14:44;98078.81;;;22.99;32.14
75513;BME280;64090;49.770;18.760;2023-05-31T13:17:56;98077.52;;;22.96;31.85
75513;BME280;64090;49.770;18.760;2023-05-31T13:21:19;98073.02;;;23.00;31.80
75513;BME280;64090;49.770;18.760;2023-05-31T13:24:25;98070.63;;;22.97;31.70
75513;BME280;64090;49.770;18.760;2023-05-31T13:27:33;98065.30;;;22.94;32.02
75513;BME280;64090;49.770;18.760;2023-05-31T13:30:48;98063.20;;;22.92;32.40
75513;BME280;64090;49.770;18.760;2023-05-31T13:33:55;98060.38;;;22.98;33.22
75513;BME280;64090;49.770;18.760;2023-05-31T13:37:13;98057.18;;;23.10;31.54
75513;BME280;64090;49.770;18.760;2023-05-31T13:40:17;98052.45;;;23.12;30.21
75513;BME280;64090;49.770;18.760;2023-05-31T13:43:33;98059.91;;;23.17;30.07
75513;BME280;64090;49.770;18.760;2023-05-31T13:46:37;98059.35;;;23.20;30.06
75513;BME280;64090;49.770;18.760;2023-05-31T13:50:10;98052.06;;;23.13;32.14
75513;BME280;64090;49.770;18.760;2023-05-31T13:53:15;98047.37;;;23.19;32.79
75513;BME280;64090;49.770;18.760;2023-05-31T13:56:26;98042.76;;;23.27;33.24
75513;BME280;64090;49.770;18.760;2023-05-31T13:59:36;98042.65;;;23.28;33.46
75513;BME280;64090;49.770;18.760;2023-05-31T14:03:04;98037.00;;;23.40;33.02
75513;BME280;64090;49.770;18.760;2023-05-31T14:06:26;98034.66;;;23.48;33.98
75513;BME280;64090;49.770;18.760;2023-05-31T14:09:49;98031.68;;;23.61;33.93
75513;BME280;64090;49.770;18.760;2023-05-31T14:12:53;98033.86;;;23.62;34.35
75513;BME280;64090;49.770;18.760;2023-05-31T14:16:03;98030.75;;;23.63;34.61
75513;BME280;64090;49.770;18.760;2023-05-31T14:19:22;98028.09;;;23.63;34.52
75513;BME280;64090;49.770;18.760;2023-05-31T14:22:25;98029.08;;;23.67;34.94
75513;BME280;64090;49.770;18.760;2023-05-31T14:25:39;98025.71;;;23.72;34.87
75513;BME280;64090;49.770;18.760;2023-05-31T14:28:49;98024.12;;;23.75;33.89
75513;BME280;64090;49.770;18.760;2023-05-31T14:32:01;98019.63;;;23.80;33.75
75513;BME280;64090;49.770;18.760;2023-05-31T14:35:14;98021.57;;;23.82;33.68
75513;BME280;64090;49.770;18.760;2023-05-31T14:38:30;98021.20;;;23.94;34.24
75513;BME280;64090;49.770;18.760;2023-05-31T14:41:38;98018.67;;;24.02;34.39
75513;BME280;64090;49.770;18.760;2023-05-31T14:44:48;98019.02;;;24.06;34.20
75513;BME280;64090;49.770;18.760;2023-05-31T14:48:09;98017.23;;;24.01;34.63
75513;BME280;64090;49.770;18.760;2023-05-31T14:51:25;98014.67;;;24.05;35.01
75513;BME280;64090;49.770;18.760;2023-05-31T14:54:35;98007.35;;;24.16;34.87
75513;BME280;64090;49.770;18.760;2023-05-31T14:57:42;98008.35;;;24.29;34.17
75513;BME280;64090;49.770;18.760;2023-05-31T15:01:09;98002.25;;;24.25;34.34
75513;BME280;64090;49.770;18.760;2023-05-31T15:04:14;97996.66;;;24.09;34.36
75513;BME280;64090;49.770;18.760;2023-05-31T15:07:28;97999.09;;;24.15;35.16
75513;BME280;64090;49.770;18.760;2023-05-31T15:10:39;97996.17;;;24.19;34.82
75513;BME280;64090;49.770;18.760;2023-05-31T15:13:51;97996.93;;;24.14;34.68
75513;BME280;64090;49.770;18.760;2023-05-31T15:17:11;97996.66;;;24.24;34.69
75513;BME280;64090;49.770;18.760;2023-05-31T15:20:21;97990.35;;;24.31;33.89
75513;BME280;64090;49.770;18.760;2023-05-31T15:23:30;97988.23;;;24.29;34.19
75513;BME280;64090;49.770;18.760;2023-05-31T15:26:48;97980.48;;;24.33;34.04
75513;BME280;64090;49.770;18.760;2023-05-31T15:29:57;97981.85;;;24.37;34.45
75513;BME280;64090;49.770;18.760;2023-05-31T15:33:16;97979.50;;;24.43;34.17
75513;BME280;64090;49.770;18.760;2023-05-31T15:36:34;97975.48;;;24.45;34.26
75513;BME280;64090;49.770;18.760;2023-05-31T15:39:50;97972.02;;;24.49;34.55
75513;BME280;64090;49.770;18.760;2023-05-31T15:43:28;97972.38;;;24.56;34.11
75513;BME280;64090;49.770;18.760;2023-05-31T15:46:39;97967.89;;;24.62;33.92
75513;BME280;64090;49.770;18.760;2023-05-31T15:49:54;97965.59;;;24.71;34.17
75513;BME280;64090;49.770;18.760;2023-05-31T15:53:10;97961.81;;;24.78;34.08
75513;BME280;64090;49.770;18.760;2023-05-31T15:56:32;97957.34;;;24.82;34.02
75513;BME280;64090;49.770;18.760;2023-05-31T15:59:43;97959.77;;;24.81;34.05
75513;BME280;64090;49.770;18.760;2023-05-31T16:02:51;97951.39;;;24.72;34.19
75513;BME280;64090;49.770;18.760;2023-05-31T16:06:04;97952.41;;;24.60;34.10
75513;BME280;64090;49.770;18.760;2023-05-31T16:09:25;97949.48;;;24.51;33.69
75513;BME280;64090;49.770;18.760;2023-05-31T16:12:58;97944.81;;;24.50;34.29
75513;BME280;64090;49.770;18.760;2023-05-31T16:16:21;97947.47;;;24.55;34.56
75513;BME280;64090;49.770;18.760;2023-05-31T16:19:27;97943.16;;;24.47;34.74
75513;BME280;64090;49.770;18.760;2023-05-31T16:22:47;97939.48;;;24.51;34.00
75513;BME280;64090;49.770;18.760;2023-05-31T16:25:50;97939.52;;;24.52;34.51
75513;BME280;64090;49.770;18.760;2023-05-31T16:29:03;97935.23;;;24.60;34.55
75513;BME280;64090;49.770;18.760;2023-05-31T16:32:17;97934.38;;;24.67;34.19
75513;BME280;64090;49.770;18.760;2023-05-31T16:35:25;97931.44;;;24.67;34.28
75513;BME280;64090;49.770;18.760;2023-05-31T16:38:30;97934.58;;;24.61;34.28
75513;BME280;64090;49.770;18.760;2023-05-31T16:41:57;97927.66;;;24.49;34.58
75513;BME280;64090;49.770;18.760;2023-05-31T16:45:05;97927.12;;;24.69;34.54
75513;BME280;64090;49.770;18.760;2023-05-31T16:48:31;97929.55;;;25.38;33.95
75513;BME280;64090;49.770;18.760;2023-05-31T16:51:41;97929.70;;;26.07;33.13
75513;BME280;64090;49.770;18.760;2023-05-31T16:54:51;97925.66;;;26.60;32.27
75513;BME280;64090;49.770;18.760;2023-05-31T16:57:58;97923.27;;;27.12;31.36
75513;BME280;64090;49.770;18.760;2023-05-31T17:01:11;97918.00;;;27.68;31.28
75513;BME280;64090;49.770;18.760;2023-05-31T17:04:32;97914.02;;;28.13;30.32
75513;BME280;64090;49.770;18.760;2023-05-31T17:07:39;97912.35;;;28.48;30.05
75513;BME280;64090;49.770;18.760;2023-05-31T17:10:52;97910.00;;;28.57;28.81
75513;BME280;64090;49.770;18.760;2023-05-31T17:14:15;97907.97;;;28.41;29.08